sensor_id;sensor_type;location;lat;lon;timestamp;temperature;humidity
38333;DHT22;25748;46.670;14.272;2023-03-11T00:00:52;6.60;68.10
38333;DHT22;25748;46.670;14.272;2023-03-11T00:03:18;6.60;68.00
38333;DHT22;25748;46.670;14.272;2023-03-11T00:05:45;6.60;67.40
38333;DHT22;25748;46.670;14.272;2023-03-11T00:08:17;6.50;66.90
38333;DHT22;25748;46.670;14.272;2023-03-11T00:10:47;6.50;67.00
38333;DHT22;25748;46.670;14.272;2023-03-11T00:13:15;6.50;66.90
38333;DHT22;25748;46.670;14.272;2023-03-11T00:15:43;6.40;66.30
38333;DHT22;25748;46.670;14.272;2023-03-11T00:18:10;6.40;66.10
38333;DHT22;25748;46.670;14.272;2023-03-11T00:20:38;6.30;65.70
38333;DHT22;25748;46.670;14.272;2023-03-11T00:23:06;6.30;65.30
38333;DHT22;25748;46.670;14.272;2023-03-11T00:25:33;6.20;65.40
38333;DHT22;25748;46.670;14.272;2023-03-11T00:28:02;6.20;65.10
38333;DHT22;25748;46.670;14.272;2023-03-11T00:30:29;6.10;64.90
38333;DHT22;25748;46.670;14.272;2023-03-11T00:32:56;6.10;64.50
38333;DHT22;25748;46.670;14.272;2023-03-11T00:35:25;6.00;63.90
38333;DHT22;25748;46.670;14.272;2023-03-11T00:37:55;5.90;64.10
38333;DHT22;25748;46.670;14.272;2023-03-11T00:40:24;5.80;63.60
38333;DHT22;25748;46.670;14.272;2023-03-11T00:42:50;5.70;63.80
38333;DHT22;25748;46.670;14.272;2023-03-11T00:45:16;5.60;63.40
38333;DHT22;25748;46.670;14.272;2023-03-11T00:47:42;5.50;63.00
38333;DHT22;25748;46.670;14.272;2023-03-11T00:50:08;5.40;63.10
38333;DHT22;25748;46.670;14.272;2023-03-11T00:52:36;5.30;63.50
38333;DHT22;25748;46.670;14.272;2023-03-11T00:55:04;5.30;63.90
38333;DHT22;25748;46.670;14.272;2023-03-11T00:57:29;5.20;64.00
38333;DHT22;25748;46.670;14.272;2023-03-11T00:59:55;5.20;64.70
38333;DHT22;25748;46.670;14.272;2023-03-11T01:02:22;5.10;65.80
38333;DHT22;25748;46.670;14.272;2023-03-11T01:04:52;5.10;66.30
38333;DHT22;25748;46.670;14.272;2023-03-11T01:07:19;5.10;66.60
38333;DHT22;25748;46.670;14.272;2023-03-11T01:09:45;5.20;67.00
38333;DHT22;25748;46.670;14.272;2023-03-11T01:12:11;5.10;66.60
38333;DHT22;25748;46.670;14.272;2023-03-11T01:14:37;5.10;67.00
38333;DHT22;25748;46.670;14.272;2023-03-11T01:17:03;5.10;67.80
38333;DHT22;25748;46.670;14.272;2023-03-11T01:19:29;5.10;67.80
38333;DHT22;25748;46.670;14.272;2023-03-11T01:21:55;5.10;67.90
38333;DHT22;25748;46.670;14.272;2023-03-11T01:24:20;5.10;68.40
38333;DHT22;25748;46.670;14.272;2023-03-11T01:26:46;5.10;68.70
38333;DHT22;25748;46.670;14.272;2023-03-11T01:29:12;5.10;69.00
38333;DHT22;25748;46.670;14.272;2023-03-11T01:31:38;5.10;69.40
38333;DHT22;25748;46.670;14.272;2023-03-11T01:34:03;5.20;69.30
38333;DHT22;25748;46.670;14.272;2023-03-11T01:36:29;5.20;69.30
38333;DHT22;25748;46.670;14.272;2023-03-11T01:38:55;5.20;69.20
38333;DHT22;25748;46.670;14.272;2023-03-11T01:41:24;5.20;69.20
38333;DHT22;25748;46.670;14.272;2023-03-11T01:43:53;5.20;69.00
38333;DHT22;25748;46.670;14.272;2023-03-11T01:46:25;5.30;68.80
38333;DHT22;25748;46.670;14.272;2023-03-11T01:49:00;5.20;68.70
38333;DHT22;25748;46.670;14.272;2023-03-11T01:51:40;5.20;68.40
38333;DHT22;25748;46.670;14.272;2023-03-11T01:54:26;5.20;68.70
38333;DHT22;25748;46.670;14.272;2023-03-11T01:56:57;5.10;69.00
38333;DHT22;25748;46.670;14.272;2023-03-11T01:59:28;5.20;69.30
38333;DHT22;25748;46.670;14.272;2023-03-11T02:02:48;5.20;69.50
38333;DHT22;25748;46.670;14.272;2023-03-11T02:05:08;5.20;69.60
38333;DHT22;25748;46.670;14.272;2023-03-11T02:07:34;5.20;70.00
38333;DHT22;25748;46.670;14.272;2023-03-11T02:10:02;5.20;70.20
38333;DHT22;25748;46.670;14.272;2023-03-11T02:12:30;5.20;70.60
38333;DHT22;25748;46.670;14.272;2023-03-11T02:14:58;5.20;70.80
38333;DHT22;25748;46.670;14.272;2023-03-11T02:17:25;5.20;71.20
38333;DHT22;25748;46.670;14.272;2023-03-11T02:22:41;5.30;71.90
38333;DHT22;25748;46.670;14.272;2023-03-11T02:28:17;5.30;72.30
38333;DHT22;25748;46.670;14.272;2023-03-11T02:30:46;5.30;72.40
38333;DHT22;25748;46.670;14.272;2023-03-11T02:33:21;5.30;72.60
38333;DHT22;25748;46.670;14.272;2023-03-11T02:35:50;5.40;72.90
38333;DHT22;25748;46.670;14.272;2023-03-11T02:38:17;5.40;73.00
38333;DHT22;25748;46.670;14.272;2023-03-11T02:40:49;5.50;72.90
38333;DHT22;25748;46.670;14.272;2023-03-11T02:43:21;5.50;72.70
38333;DHT22;25748;46.670;14.272;2023-03-11T02:45:48;5.50;73.10
38333;DHT22;25748;46.670;14.272;2023-03-11T02:48:15;5.40;73.90
38333;DHT22;25748;46.670;14.272;2023-03-11T02:50:46;5.40;73.80
38333;DHT22;25748;46.670;14.272;2023-03-11T02:53:15;5.40;73.60
38333;DHT22;25748;46.670;14.272;2023-03-11T02:55:43;5.50;74.00
38333;DHT22;25748;46.670;14.272;2023-03-11T02:58:09;5.50;74.40
38333;DHT22;25748;46.670;14.272;2023-03-11T03:00:37;5.40;74.80
38333;DHT22;25748;46.670;14.272;2023-03-11T03:03:13;5.50;75.60
38333;DHT22;25748;46.670;14.272;2023-03-11T03:05:39;5.50;75.40
38333;DHT22;25748;46.670;14.272;2023-03-11T03:08:05;5.50;75.40
38333;DHT22;25748;46.670;14.272;2023-03-11T03:10:34;5.50;75.10
38333;DHT22;25748;46.670;14.272;2023-03-11T03:13:02;5.50;75.30
38333;DHT22;25748;46.670;14.272;2023-03-11T03:15:28;5.50;75.10
38333;DHT22;25748;46.670;14.272;2023-03-11T03:17:55;5.50;74.30
38333;DHT22;25748;46.670;14.272;2023-03-11T03:20:21;5.40;73.70
38333;DHT22;25748;46.670;14.272;2023-03-11T03:22:48;5.40;74.20
38333;DHT22;25748;46.670;14.272;2023-03-11T03:25:14;5.40;74.00
38333;DHT22;25748;46.670;14.272;2023-03-11T03:27:40;5.40;74.10
38333;DHT22;25748;46.670;14.272;2023-03-11T03:30:07;5.30;73.90
38333;DHT22;25748;46.670;14.272;2023-03-11T03:32:36;5.40;74.20
38333;DHT22;25748;46.670;14.272;2023-03-11T03:35:03;5.30;74.40
38333;DHT22;25748;46.670;14.272;2023-03-11T03:37:32;5.30;74.60
38333;DHT22;25748;46.670;14.272;2023-03-11T03:40:00;5.30;74.80
38333;DHT22;25748;46.670;14.272;2023-03-11T03:42:26;5.30;74.80
38333;DHT22;25748;46.670;14.272;2023-03-11T03:44:52;5.30;74.80
38333;DHT22;25748;46.670;14.272;2023-03-11T03:47:19;5.30;75.00
38333;DHT22;25748;46.670;14.272;2023-03-11T03:49:45;5.30;75.10
38333;DHT22;25748;46.670;14.272;2023-03-11T03:52:10;5.30;75.00
38333;DHT22;25748;46.670;14.272;2023-03-11T03:54:37;5.20;74.40
38333;DHT22;25748;46.670;14.272;2023-03-11T03:57:03;5.20;73.90
38333;DHT22;25748;46.670;14.272;2023-03-11T03:59:29;5.20;73.30
38333;DHT22;25748;46.670;14.272;2023-03-11T04:01:55;5.20;73.60
38333;DHT22;25748;46.670;14.272;2023-03-11T04:04:21;5.10;72.30
38333;DHT22;25748;46.670;14.272;2023-03-11T04:06:47;5.10;72.50
38333;DHT22;25748;46.670;14.272;2023-03-11T04:09:15;5.00;72.00
38333;DHT22;25748;46.670;14.272;2023-03-11T04:11:41;4.90;70.70
38333;DHT22;25748;46.670;14.272;2023-03-11T04:14:06;4.80;70.90
38333;DHT22;25748;46.670;14.272;2023-03-11T04:16:32;4.80;71.40
38333;DHT22;25748;46.670;14.272;2023-03-11T04:18:58;4.80;71.80
38333;DHT22;25748;46.670;14.272;2023-03-11T04:21:24;4.80;71.80
38333;DHT22;25748;46.670;14.272;2023-03-11T04:23:50;4.70;72.50
38333;DHT22;25748;46.670;14.272;2023-03-11T04:26:17;4.80;72.80
38333;DHT22;25748;46.670;14.272;2023-03-11T04:28:43;4.70;72.60
38333;DHT22;25748;46.670;14.272;2023-03-11T04:31:09;4.70;72.60
38333;DHT22;25748;46.670;14.272;2023-03-11T04:33:36;4.70;72.70
38333;DHT22;25748;46.670;14.272;2023-03-11T04:36:06;4.70;72.90
38333;DHT22;25748;46.670;14.272;2023-03-11T04:38:33;4.70;73.40
38333;DHT22;25748;46.670;14.272;2023-03-11T04:41:03;4.70;73.60
38333;DHT22;25748;46.670;14.272;2023-03-11T04:43:30;4.60;73.80
38333;DHT22;25748;46.670;14.272;2023-03-11T04:45:55;4.60;75.20
38333;DHT22;25748;46.670;14.272;2023-03-11T04:48:21;4.60;75.30
38333;DHT22;25748;46.670;14.272;2023-03-11T04:50:49;4.60;75.30
38333;DHT22;25748;46.670;14.272;2023-03-11T04:53:15;4.60;75.70
38333;DHT22;25748;46.670;14.272;2023-03-11T04:55:40;4.60;76.20
38333;DHT22;25748;46.670;14.272;2023-03-11T04:58:08;4.60;76.60
38333;DHT22;25748;46.670;14.272;2023-03-11T05:00:33;4.60;76.90
38333;DHT22;25748;46.670;14.272;2023-03-11T05:02:59;4.60;77.00
38333;DHT22;25748;46.670;14.272;2023-03-11T05:05:25;4.60;77.20
38333;DHT22;25748;46.670;14.272;2023-03-11T05:07:51;4.60;77.20
38333;DHT22;25748;46.670;14.272;2023-03-11T05:10:18;4.60;77.20
38333;DHT22;25748;46.670;14.272;2023-03-11T05:12:49;4.70;77.30
38333;DHT22;25748;46.670;14.272;2023-03-11T05:15:19;4.70;77.40
38333;DHT22;25748;46.670;14.272;2023-03-11T05:17:45;4.70;77.30
38333;DHT22;25748;46.670;14.272;2023-03-11T05:20:12;4.70;77.40
38333;DHT22;25748;46.670;14.272;2023-03-11T05:22:38;4.80;77.40
38333;DHT22;25748;46.670;14.272;2023-03-11T05:25:04;4.80;77.80
38333;DHT22;25748;46.670;14.272;2023-03-11T05:27:32;4.80;78.10
38333;DHT22;25748;46.670;14.272;2023-03-11T05:29:58;4.80;78.10
38333;DHT22;25748;46.670;14.272;2023-03-11T05:32:24;4.80;78.40
38333;DHT22;25748;46.670;14.272;2023-03-11T05:34:50;4.70;78.60
38333;DHT22;25748;46.670;14.272;2023-03-11T05:37:17;4.80;78.60
38333;DHT22;25748;46.670;14.272;2023-03-11T05:39:43;4.80;78.30
38333;DHT22;25748;46.670;14.272;2023-03-11T05:42:09;4.80;78.30
38333;DHT22;25748;46.670;14.272;2023-03-11T05:44:35;4.80;78.40
38333;DHT22;25748;46.670;14.272;2023-03-11T05:47:04;4.80;78.60
38333;DHT22;25748;46.670;14.272;2023-03-11T05:49:30;4.80;78.40
38333;DHT22;25748;46.670;14.272;2023-03-11T05:51:56;4.80;78.50
38333;DHT22;25748;46.670;14.272;2023-03-11T05:54:23;4.80;79.20
38333;DHT22;25748;46.670;14.272;2023-03-11T05:56:50;4.80;79.00
38333;DHT22;25748;46.670;14.272;2023-03-11T05:59:19;4.80;79.20
38333;DHT22;25748;46.670;14.272;2023-03-11T06:01:46;4.80;79.40
38333;DHT22;25748;46.670;14.272;2023-03-11T06:04:14;4.80;79.60
38333;DHT22;25748;46.670;14.272;2023-03-11T06:06:40;4.90;79.70
38333;DHT22;25748;46.670;14.272;2023-03-11T06:09:06;4.90;79.70
38333;DHT22;25748;46.670;14.272;2023-03-11T06:11:33;4.90;79.90
38333;DHT22;25748;46.670;14.272;2023-03-11T06:19:11;5.00;80.00
38333;DHT22;25748;46.670;14.272;2023-03-11T06:21:39;5.00;80.10
38333;DHT22;25748;46.670;14.272;2023-03-11T06:24:05;5.00;80.00
38333;DHT22;25748;46.670;14.272;2023-03-11T06:26:31;5.00;80.40
38333;DHT22;25748;46.670;14.272;2023-03-11T06:28:57;5.00;80.20
38333;DHT22;25748;46.670;14.272;2023-03-11T06:31:27;5.00;80.60
38333;DHT22;25748;46.670;14.272;2023-03-11T06:33:54;5.00;80.40
38333;DHT22;25748;46.670;14.272;2023-03-11T06:36:23;5.10;80.70
38333;DHT22;25748;46.670;14.272;2023-03-11T06:38:53;5.10;80.70
38333;DHT22;25748;46.670;14.272;2023-03-11T06:41:19;5.10;80.70
38333;DHT22;25748;46.670;14.272;2023-03-11T06:43:45;5.10;80.90
38333;DHT22;25748;46.670;14.272;2023-03-11T06:46:13;5.10;82.00
38333;DHT22;25748;46.670;14.272;2023-03-11T06:48:39;5.00;81.30
38333;DHT22;25748;46.670;14.272;2023-03-11T06:51:05;5.00;81.10
38333;DHT22;25748;46.670;14.272;2023-03-11T06:53:32;5.00;80.90
38333;DHT22;25748;46.670;14.272;2023-03-11T06:58:27;5.00;81.30
38333;DHT22;25748;46.670;14.272;2023-03-11T07:00:58;5.10;81.20
38333;DHT22;25748;46.670;14.272;2023-03-11T07:03:26;5.10;81.40
38333;DHT22;25748;46.670;14.272;2023-03-11T07:05:52;5.20;81.70
38333;DHT22;25748;46.670;14.272;2023-03-11T07:08:18;5.30;81.50
38333;DHT22;25748;46.670;14.272;2023-03-11T07:10:44;5.30;80.60
38333;DHT22;25748;46.670;14.272;2023-03-11T07:13:09;5.20;79.70
38333;DHT22;25748;46.670;14.272;2023-03-11T07:15:36;5.30;80.70
38333;DHT22;25748;46.670;14.272;2023-03-11T07:18:02;5.30;80.00
38333;DHT22;25748;46.670;14.272;2023-03-11T07:20:28;5.30;79.40
38333;DHT22;25748;46.670;14.272;2023-03-11T07:22:54;5.30;79.50
38333;DHT22;25748;46.670;14.272;2023-03-11T07:25:23;5.40;80.30
38333;DHT22;25748;46.670;14.272;2023-03-11T07:27:48;5.40;79.80
38333;DHT22;25748;46.670;14.272;2023-03-11T07:30:14;5.40;80.10
38333;DHT22;25748;46.670;14.272;2023-03-11T07:32:40;5.50;80.80
38333;DHT22;25748;46.670;14.272;2023-03-11T07:35:07;5.50;79.60
38333;DHT22;25748;46.670;14.272;2023-03-11T07:37:32;5.60;79.90
38333;DHT22;25748;46.670;14.272;2023-03-11T07:39:58;5.60;79.50
38333;DHT22;25748;46.670;14.272;2023-03-11T07:42:29;5.70;80.00
38333;DHT22;25748;46.670;14.272;2023-03-11T07:44:55;5.70;79.80
38333;DHT22;25748;46.670;14.272;2023-03-11T07:47:21;5.90;79.70
38333;DHT22;25748;46.670;14.272;2023-03-11T07:49:46;5.90;79.30
38333;DHT22;25748;46.670;14.272;2023-03-11T07:52:15;6.00;79.50
38333;DHT22;25748;46.670;14.272;2023-03-11T07:54:43;6.00;79.10
38333;DHT22;25748;46.670;14.272;2023-03-11T07:57:09;6.10;79.30
38333;DHT22;25748;46.670;14.272;2023-03-11T07:59:41;6.20;79.00
38333;DHT22;25748;46.670;14.272;2023-03-11T08:02:08;6.10;77.50
38333;DHT22;25748;46.670;14.272;2023-03-11T08:04:35;6.20;78.60
38333;DHT22;25748;46.670;14.272;2023-03-11T08:07:06;6.30;78.60
38333;DHT22;25748;46.670;14.272;2023-03-11T08:09:34;6.30;78.10
38333;DHT22;25748;46.670;14.272;2023-03-11T08:11:59;6.40;78.80
38333;DHT22;25748;46.670;14.272;2023-03-11T08:14:38;6.40;77.70
38333;DHT22;25748;46.670;14.272;2023-03-11T08:17:07;6.40;77.60
38333;DHT22;25748;46.670;14.272;2023-03-11T08:20:10;6.60;79.10
38333;DHT22;25748;46.670;14.272;2023-03-11T08:22:50;6.70;79.50
38333;DHT22;25748;46.670;14.272;2023-03-11T08:25:21;7.00;80.30
38333;DHT22;25748;46.670;14.272;2023-03-11T08:32:50;7.50;74.80
38333;DHT22;25748;46.670;14.272;2023-03-11T08:35:16;7.60;73.10
38333;DHT22;25748;46.670;14.272;2023-03-11T08:38:12;7.70;70.30
38333;DHT22;25748;46.670;14.272;2023-03-11T08:40:38;7.90;70.40
38333;DHT22;25748;46.670;14.272;2023-03-11T08:43:10;8.00;67.30
38333;DHT22;25748;46.670;14.272;2023-03-11T08:45:46;8.00;66.90
38333;DHT22;25748;46.670;14.272;2023-03-11T08:48:15;8.30;68.00
38333;DHT22;25748;46.670;14.272;2023-03-11T08:50:59;8.60;67.10
38333;DHT22;25748;46.670;14.272;2023-03-11T08:57:48;9.20;65.50
38333;DHT22;25748;46.670;14.272;2023-03-11T09:03:49;9.70;60.80
38333;DHT22;25748;46.670;14.272;2023-03-11T09:06:26;9.80;59.20
38333;DHT22;25748;46.670;14.272;2023-03-11T09:08:54;10.00;59.20
38333;DHT22;25748;46.670;14.272;2023-03-11T09:11:23;10.30;58.70
38333;DHT22;25748;46.670;14.272;2023-03-11T09:13:49;10.30;58.00
38333;DHT22;25748;46.670;14.272;2023-03-11T09:16:21;10.30;58.20
38333;DHT22;25748;46.670;14.272;2023-03-11T09:18:58;10.30;58.30
38333;DHT22;25748;46.670;14.272;2023-03-11T09:21:31;10.40;56.10
38333;DHT22;25748;46.670;14.272;2023-03-11T09:27:11;10.70;58.00
38333;DHT22;25748;46.670;14.272;2023-03-11T09:29:38;10.90;57.50
38333;DHT22;25748;46.670;14.272;2023-03-11T09:32:04;11.20;57.40
38333;DHT22;25748;46.670;14.272;2023-03-11T09:34:30;11.20;55.70
38333;DHT22;25748;46.670;14.272;2023-03-11T09:37:00;11.40;57.00
38333;DHT22;25748;46.670;14.272;2023-03-11T09:39:26;11.80;56.10
38333;DHT22;25748;46.670;14.272;2023-03-11T09:42:36;11.90;54.00
38333;DHT22;25748;46.670;14.272;2023-03-11T09:45:12;12.30;54.10
38333;DHT22;25748;46.670;14.272;2023-03-11T09:50:52;13.00;51.80
38333;DHT22;25748;46.670;14.272;2023-03-11T09:56:11;13.20;51.60
38333;DHT22;25748;46.670;14.272;2023-03-11T09:58:50;13.10;50.70
38333;DHT22;25748;46.670;14.272;2023-03-11T10:01:41;13.10;49.50
38333;DHT22;25748;46.670;14.272;2023-03-11T10:04:13;13.00;47.80
38333;DHT22;25748;46.670;14.272;2023-03-11T10:06:41;13.00;46.50
38333;DHT22;25748;46.670;14.272;2023-03-11T10:09:26;12.80;45.10
38333;DHT22;25748;46.670;14.272;2023-03-11T10:22:46;13.00;43.30
38333;DHT22;25748;46.670;14.272;2023-03-11T10:25:29;12.80;43.00
38333;DHT22;25748;46.670;14.272;2023-03-11T10:28:04;13.10;42.20
38333;DHT22;25748;46.670;14.272;2023-03-11T10:30:39;13.40;46.00
38333;DHT22;25748;46.670;14.272;2023-03-11T10:33:28;13.70;45.90
38333;DHT22;25748;46.670;14.272;2023-03-11T10:35:58;13.80;45.90
38333;DHT22;25748;46.670;14.272;2023-03-11T10:38:36;14.00;45.50
38333;DHT22;25748;46.670;14.272;2023-03-11T10:41:06;13.80;43.80
38333;DHT22;25748;46.670;14.272;2023-03-11T10:43:42;14.00;44.70
38333;DHT22;25748;46.670;14.272;2023-03-11T10:46:22;14.20;42.30
38333;DHT22;25748;46.670;14.272;2023-03-11T10:48:48;14.50;42.00
38333;DHT22;25748;46.670;14.272;2023-03-11T10:51:17;14.20;40.40
38333;DHT22;25748;46.670;14.272;2023-03-11T10:53:50;14.40;40.70
38333;DHT22;25748;46.670;14.272;2023-03-11T10:56:37;14.60;40.60
38333;DHT22;25748;46.670;14.272;2023-03-11T10:59:18;14.80;39.60
38333;DHT22;25748;46.670;14.272;2023-03-11T11:04:48;14.50;37.60
38333;DHT22;25748;46.670;14.272;2023-03-11T11:07:30;14.50;37.10
38333;DHT22;25748;46.670;14.272;2023-03-11T11:10:16;14.70;38.50
38333;DHT22;25748;46.670;14.272;2023-03-11T11:12:50;14.80;37.30
38333;DHT22;25748;46.670;14.272;2023-03-11T11:17:54;14.90;37.30
38333;DHT22;25748;46.670;14.272;2023-03-11T11:20:21;14.60;36.90
38333;DHT22;25748;46.670;14.272;2023-03-11T11:22:51;14.90;36.30
38333;DHT22;25748;46.670;14.272;2023-03-11T11:28:11;15.10;35.20
38333;DHT22;25748;46.670;14.272;2023-03-11T11:30:51;14.80;35.00
38333;DHT22;25748;46.670;14.272;2023-03-11T11:33:32;14.90;34.80
38333;DHT22;25748;46.670;14.272;2023-03-11T11:36:03;14.40;34.20
38333;DHT22;25748;46.670;14.272;2023-03-11T11:38:30;14.30;35.20
38333;DHT22;25748;46.670;14.272;2023-03-11T11:40:58;14.20;35.40
38333;DHT22;25748;46.670;14.272;2023-03-11T11:43:40;14.20;34.60
38333;DHT22;25748;46.670;14.272;2023-03-11T11:52:11;14.40;36.40
38333;DHT22;25748;46.670;14.272;2023-03-11T11:57:29;14.20;34.90
38333;DHT22;25748;46.670;14.272;2023-03-11T11:59:55;14.60;36.70
38333;DHT22;25748;46.670;14.272;2023-03-11T12:27:26;16.30;33.30
38333;DHT22;25748;46.670;14.272;2023-03-11T12:29:56;16.70;35.50
38333;DHT22;25748;46.670;14.272;2023-03-11T12:32:40;16.80;33.90
38333;DHT22;25748;46.670;14.272;2023-03-11T12:35:25;16.90;34.30
38333;DHT22;25748;46.670;14.272;2023-03-11T12:40:55;17.10;33.20
38333;DHT22;25748;46.670;14.272;2023-03-11T12:43:27;16.90;33.70
38333;DHT22;25748;46.670;14.272;2023-03-11T12:46:15;17.00;33.50
38333;DHT22;25748;46.670;14.272;2023-03-11T12:49:10;17.00;32.70
38333;DHT22;25748;46.670;14.272;2023-03-11T12:57:01;17.10;31.40
38333;DHT22;25748;46.670;14.272;2023-03-11T13:02:59;16.10;31.40
38333;DHT22;25748;46.670;14.272;2023-03-11T13:12:54;15.90;30.70
38333;DHT22;25748;46.670;14.272;2023-03-11T13:18:16;15.90;31.30
38333;DHT22;25748;46.670;14.272;2023-03-11T13:20:52;15.90;31.60
38333;DHT22;25748;46.670;14.272;2023-03-11T13:23:27;15.90;30.70
38333;DHT22;25748;46.670;14.272;2023-03-11T13:31:33;15.70;31.20
38333;DHT22;25748;46.670;14.272;2023-03-11T13:34:20;15.80;31.00
38333;DHT22;25748;46.670;14.272;2023-03-11T13:39:39;16.10;31.70
38333;DHT22;25748;46.670;14.272;2023-03-11T13:42:25;16.00;30.90
38333;DHT22;25748;46.670;14.272;2023-03-11T13:44:56;15.80;31.40
38333;DHT22;25748;46.670;14.272;2023-03-11T13:47:22;15.80;31.10
38333;DHT22;25748;46.670;14.272;2023-03-11T13:50:08;15.70;31.40
38333;DHT22;25748;46.670;14.272;2023-03-11T13:52:40;15.70;30.50
38333;DHT22;25748;46.670;14.272;2023-03-11T13:55:18;15.70;30.60
38333;DHT22;25748;46.670;14.272;2023-03-11T13:57:50;15.70;30.90
38333;DHT22;25748;46.670;14.272;2023-03-11T14:00:19;15.80;30.60
38333;DHT22;25748;46.670;14.272;2023-03-11T14:03:02;15.60;30.70
38333;DHT22;25748;46.670;14.272;2023-03-11T14:08:26;15.60;31.60
38333;DHT22;25748;46.670;14.272;2023-03-11T14:13:42;15.70;30.50
38333;DHT22;25748;46.670;14.272;2023-03-11T14:18:38;15.80;30.40
38333;DHT22;25748;46.670;14.272;2023-03-11T14:21:17;15.80;31.60
38333;DHT22;25748;46.670;14.272;2023-03-11T14:23:46;15.80;30.00
38333;DHT22;25748;46.670;14.272;2023-03-11T14:26:14;15.80;30.80
38333;DHT22;25748;46.670;14.272;2023-03-11T14:28:44;15.80;30.40
38333;DHT22;25748;46.670;14.272;2023-03-11T14:31:32;15.70;31.60
38333;DHT22;25748;46.670;14.272;2023-03-11T14:34:19;15.80;31.40
38333;DHT22;25748;46.670;14.272;2023-03-11T14:36:56;15.70;30.50
38333;DHT22;25748;46.670;14.272;2023-03-11T14:41:55;16.00;30.40
38333;DHT22;25748;46.670;14.272;2023-03-11T14:44:25;16.00;30.60
38333;DHT22;25748;46.670;14.272;2023-03-11T14:46:54;15.90;30.00
38333;DHT22;25748;46.670;14.272;2023-03-11T14:49:22;15.90;30.40
38333;DHT22;25748;46.670;14.272;2023-03-11T14:51:58;16.00;30.00
38333;DHT22;25748;46.670;14.272;2023-03-11T14:54:28;16.00;29.80
38333;DHT22;25748;46.670;14.272;2023-03-11T14:57:09;15.90;30.40
38333;DHT22;25748;46.670;14.272;2023-03-11T14:59:42;15.90;30.60
38333;DHT22;25748;46.670;14.272;2023-03-11T15:02:31;15.70;30.90
38333;DHT22;25748;46.670;14.272;2023-03-11T15:05:08;15.50;30.50
38333;DHT22;25748;46.670;14.272;2023-03-11T15:07:37;15.50;31.30
38333;DHT22;25748;46.670;14.272;2023-03-11T15:10:08;15.30;30.20
38333;DHT22;25748;46.670;14.272;2023-03-11T15:12:43;15.10;30.50
38333;DHT22;25748;46.670;14.272;2023-03-11T15:15:39;15.10;31.40
38333;DHT22;25748;46.670;14.272;2023-03-11T15:18:21;15.10;30.00
38333;DHT22;25748;46.670;14.272;2023-03-11T15:21:20;15.00;30.00
38333;DHT22;25748;46.670;14.272;2023-03-11T15:23:53;15.00;30.10
38333;DHT22;25748;46.670;14.272;2023-03-11T15:26:25;14.60;30.80
38333;DHT22;25748;46.670;14.272;2023-03-11T15:28:55;14.50;32.40
38333;DHT22;25748;46.670;14.272;2023-03-11T15:33:47;14.50;31.10
38333;DHT22;25748;46.670;14.272;2023-03-11T15:36:37;14.40;31.00
38333;DHT22;25748;46.670;14.272;2023-03-11T15:39:12;14.30;30.30
38333;DHT22;25748;46.670;14.272;2023-03-11T15:41:42;14.30;31.50
38333;DHT22;25748;46.670;14.272;2023-03-11T15:46:56;14.20;31.20
38333;DHT22;25748;46.670;14.272;2023-03-11T15:49:24;14.20;31.20
38333;DHT22;25748;46.670;14.272;2023-03-11T15:51:49;14.10;30.40
38333;DHT22;25748;46.670;14.272;2023-03-11T15:54:15;13.90;31.30
38333;DHT22;25748;46.670;14.272;2023-03-11T15:56:41;13.80;31.10
38333;DHT22;25748;46.670;14.272;2023-03-11T15:59:11;13.70;30.90
38333;DHT22;25748;46.670;14.272;2023-03-11T16:01:38;13.40;30.40
38333;DHT22;25748;46.670;14.272;2023-03-11T16:04:12;13.10;31.30
38333;DHT22;25748;46.670;14.272;2023-03-11T16:06:38;12.90;31.70
38333;DHT22;25748;46.670;14.272;2023-03-11T16:09:04;12.80;31.40
38333;DHT22;25748;46.670;14.272;2023-03-11T16:11:30;12.70;31.90
38333;DHT22;25748;46.670;14.272;2023-03-11T16:13:57;12.50;32.10
38333;DHT22;25748;46.670;14.272;2023-03-11T16:16:23;12.50;31.80
38333;DHT22;25748;46.670;14.272;2023-03-11T16:18:49;12.40;31.40
38333;DHT22;25748;46.670;14.272;2023-03-11T16:21:17;12.10;31.90
38333;DHT22;25748;46.670;14.272;2023-03-11T16:23:43;12.10;31.80
38333;DHT22;25748;46.670;14.272;2023-03-11T16:26:10;12.00;31.60
38333;DHT22;25748;46.670;14.272;2023-03-11T16:28:37;12.00;31.40
38333;DHT22;25748;46.670;14.272;2023-03-11T16:31:03;11.80;31.50
38333;DHT22;25748;46.670;14.272;2023-03-11T16:33:29;11.40;31.70
38333;DHT22;25748;46.670;14.272;2023-03-11T16:35:55;11.40;31.70
38333;DHT22;25748;46.670;14.272;2023-03-11T16:38:20;11.20;32.20
38333;DHT22;25748;46.670;14.272;2023-03-11T16:41:01;11.00;32.10
38333;DHT22;25748;46.670;14.272;2023-03-11T16:43:28;10.80;32.00
38333;DHT22;25748;46.670;14.272;2023-03-11T16:45:55;10.80;32.50
38333;DHT22;25748;46.670;14.272;2023-03-11T16:48:21;10.70;32.70
38333;DHT22;25748;46.670;14.272;2023-03-11T16:50:48;10.60;32.00
38333;DHT22;25748;46.670;14.272;2023-03-11T16:53:15;10.50;32.20
38333;DHT22;25748;46.670;14.272;2023-03-11T16:55:45;10.40;32.00
38333;DHT22;25748;46.670;14.272;2023-03-11T16:58:12;10.40;32.30
38333;DHT22;25748;46.670;14.272;2023-03-11T17:00:38;10.40;32.20
38333;DHT22;25748;46.670;14.272;2023-03-11T17:03:06;10.30;32.60
38333;DHT22;25748;46.670;14.272;2023-03-11T17:05:32;10.20;32.60
38333;DHT22;25748;46.670;14.272;2023-03-11T17:07:57;10.20;32.30
38333;DHT22;25748;46.670;14.272;2023-03-11T17:10:29;10.00;32.50
38333;DHT22;25748;46.670;14.272;2023-03-11T17:12:59;10.00;32.40
38333;DHT22;25748;46.670;14.272;2023-03-11T17:15:25;9.80;33.10
38333;DHT22;25748;46.670;14.272;2023-03-11T17:17:52;9.80;32.90
38333;DHT22;25748;46.670;14.272;2023-03-11T17:20:18;9.80;32.80
38333;DHT22;25748;46.670;14.272;2023-03-11T17:22:43;9.70;32.70
38333;DHT22;25748;46.670;14.272;2023-03-11T17:25:09;9.60;33.00
38333;DHT22;25748;46.670;14.272;2023-03-11T17:27:35;9.50;33.50
38333;DHT22;25748;46.670;14.272;2023-03-11T17:30:02;9.40;33.80
38333;DHT22;25748;46.670;14.272;2023-03-11T17:32:31;9.30;33.50
38333;DHT22;25748;46.670;14.272;2023-03-11T17:34:59;9.30;33.50
38333;DHT22;25748;46.670;14.272;2023-03-11T17:37:34;9.20;33.70
38333;DHT22;25748;46.670;14.272;2023-03-11T17:40:30;9.20;33.50
38333;DHT22;25748;46.670;14.272;2023-03-11T17:42:57;9.20;33.50
38333;DHT22;25748;46.670;14.272;2023-03-11T17:45:27;9.10;33.60
38333;DHT22;25748;46.670;14.272;2023-03-11T17:48:03;9.10;33.30
38333;DHT22;25748;46.670;14.272;2023-03-11T17:50:41;9.00;33.50
38333;DHT22;25748;46.670;14.272;2023-03-11T17:53:17;8.90;33.90
38333;DHT22;25748;46.670;14.272;2023-03-11T17:56:14;8.90;33.30
38333;DHT22;25748;46.670;14.272;2023-03-11T17:58:40;8.70;33.70